تبوك, Saudi Arabia

08:07 PM AST on لبراêر 13, 2016 (GMT +0300)
Tabuk | | Change Station
CLOSE
Current Station
Airport
Location: Tabuk,
Elevation: 2520 ft
Nearby Weather Stations

Elev 2520 ft 28.38 °N, 36.60 °E | Updated 1 hour ago

Clear
صافية
70 °F
Feels Like 70 °F
N
4
ريح متغير ريح from NNE

هذا اليوم
High -- | Low -- °F
--% Chance of Precip.
Yesterday
High -- | Low -- °F
Precip. -- في
الضغط 30.06 في
وضوح الرؤية -9999.0 أميال
سحابات
نقطة الندى 18 °F
الرطوبة 14%
Rainfall 0.00 في
عمق الثلج Not available.
7:13 AM 6:22 PM
الهلال الأول, 32% visible
METAR OETB 131600Z 02003KT CAVOK 21/M08 Q1018 NOSIG
الضغط 30.06 في
وضوح الرؤية -9999.0 أميال
سحابات
نقطة الندى 18 °F
الرطوبة 14%
Rainfall 0.00 في
عمق الثلج Not available.
7:13 AM 6:22 PM
الهلال الأول, 32% visible
METAR OETB 131600Z 02003KT CAVOK 21/M08 Q1018 NOSIG

10-Day Weather Forecast

No radar image for this location.
×

Almanac

علم الفلك

Feb. 13, 2016 Rise Set
Actual Time
Civil Twilight
Nautical Twilight
Astronomical Twilight
قمر
Length Of Visible Light
طول الیوم
Tomorrow will be .
, % of the Moon is Illuminated

Today's Extremes

Country Highs Country Lows

Community

WunderPhotos

Upload Photos

1,892,611 photos uploaded!

WunderBlog® & News

Nearby

جودة الهواء

  جودة الهواء AQ Index Pollutant
Not available.

عمق الثلج

Station Depth Elevation

Earthquake Activity

City Distance Mag. Time & Date
Minimum magnitude displayed is 2.5.

Coastal Water Temperatures

مكان درجات الحرارة

Stations

Nearby Weather Stations

Station Location الحرارة رياح باردة نقطة الندى الرطوبة ريح Precip. Elev تحديث Type